sensor_id;sensor_type;location;lat;lon;timestamp;P1;durP1;ratioP1;P2;durP2;ratioP2
15712;SDS011;7957;51.608;6.916;2023-05-07T00:01:35;6.37;;;5.87;;
15712;SDS011;7957;51.608;6.916;2023-05-07T00:04:02;6.20;;;5.60;;
15712;SDS011;7957;51.608;6.916;2023-05-07T00:06:29;6.20;;;5.60;;
15712;SDS011;7957;51.608;6.916;2023-05-07T00:08:58;6.50;;;6.00;;
15712;SDS011;7957;51.608;6.916;2023-05-07T00:11:25;6.93;;;6.33;;
15712;SDS011;7957;51.608;6.916;2023-05-07T00:13:53;6.73;;;6.07;;
15712;SDS011;7957;51.608;6.916;2023-05-07T00:16:20;6.73;;;6.17;;
15712;SDS011;7957;51.608;6.916;2023-05-07T00:18:46;6.67;;;6.07;;
15712;SDS011;7957;51.608;6.916;2023-05-07T00:21:13;6.30;;;5.80;;
15712;SDS011;7957;51.608;6.916;2023-05-07T00:23:40;6.60;;;6.00;;
15712;SDS011;7957;51.608;6.916;2023-05-07T00:26:08;6.47;;;6.00;;
15712;SDS011;7957;51.608;6.916;2023-05-07T00:28:35;6.60;;;6.00;;
15712;SDS011;7957;51.608;6.916;2023-05-07T00:31:02;6.70;;;6.20;;
15712;SDS011;7957;51.608;6.916;2023-05-07T00:33:29;6.87;;;6.37;;
15712;SDS011;7957;51.608;6.916;2023-05-07T00:35:56;6.50;;;5.90;;
15712;SDS011;7957;51.608;6.916;2023-05-07T00:38:23;6.97;;;6.37;;
15712;SDS011;7957;51.608;6.916;2023-05-07T00:40:49;7.00;;;6.40;;
15712;SDS011;7957;51.608;6.916;2023-05-07T00:43:18;6.97;;;6.37;;
15712;SDS011;7957;51.608;6.916;2023-05-07T00:45:44;6.83;;;6.30;;
15712;SDS011;7957;51.608;6.916;2023-05-07T00:48:12;7.40;;;6.70;;
15712;SDS011;7957;51.608;6.916;2023-05-07T00:50:39;7.33;;;6.73;;
15712;SDS011;7957;51.608;6.916;2023-05-07T00:53:06;7.33;;;6.70;;
15712;SDS011;7957;51.608;6.916;2023-05-07T00:55:33;7.63;;;7.03;;
15712;SDS011;7957;51.608;6.916;2023-05-07T00:58:02;7.63;;;7.03;;
15712;SDS011;7957;51.608;6.916;2023-05-07T01:00:30;7.50;;;6.30;;
15712;SDS011;7957;51.608;6.916;2023-05-07T01:02:57;7.00;;;6.23;;
15712;SDS011;7957;51.608;6.916;2023-05-07T01:05:24;7.47;;;6.87;;
15712;SDS011;7957;51.608;6.916;2023-05-07T01:07:53;7.43;;;6.83;;
15712;SDS011;7957;51.608;6.916;2023-05-07T01:10:21;7.83;;;7.13;;
15712;SDS011;7957;51.608;6.916;2023-05-07T01:12:48;8.80;;;8.00;;
15712;SDS011;7957;51.608;6.916;2023-05-07T01:15:16;8.33;;;7.53;;
15712;SDS011;7957;51.608;6.916;2023-05-07T01:17:45;8.33;;;7.63;;
15712;SDS011;7957;51.608;6.916;2023-05-07T01:20:12;8.37;;;7.67;;
15712;SDS011;7957;51.608;6.916;2023-05-07T01:22:40;8.57;;;7.70;;
15712;SDS011;7957;51.608;6.916;2023-05-07T01:25:09;8.20;;;7.50;;
15712;SDS011;7957;51.608;6.916;2023-05-07T01:27:36;8.67;;;7.87;;
15712;SDS011;7957;51.608;6.916;2023-05-07T01:30:03;8.70;;;7.90;;
15712;SDS011;7957;51.608;6.916;2023-05-07T01:32:32;8.77;;;8.07;;
15712;SDS011;7957;51.608;6.916;2023-05-07T01:35:02;8.30;;;7.60;;
15712;SDS011;7957;51.608;6.916;2023-05-07T01:37:31;8.43;;;7.73;;
15712;SDS011;7957;51.608;6.916;2023-05-07T01:40:00;8.30;;;7.60;;
15712;SDS011;7957;51.608;6.916;2023-05-07T01:42:28;9.10;;;8.30;;
15712;SDS011;7957;51.608;6.916;2023-05-07T01:44:55;9.30;;;8.43;;
15712;SDS011;7957;51.608;6.916;2023-05-07T01:47:22;9.03;;;8.23;;
15712;SDS011;7957;51.608;6.916;2023-05-07T01:49:50;8.30;;;7.60;;
15712;SDS011;7957;51.608;6.916;2023-05-07T01:52:18;8.67;;;7.93;;
15712;SDS011;7957;51.608;6.916;2023-05-07T01:54:44;8.63;;;7.83;;
15712;SDS011;7957;51.608;6.916;2023-05-07T01:57:13;8.80;;;8.00;;
15712;SDS011;7957;51.608;6.916;2023-05-07T01:59:40;8.93;;;8.17;;
15712;SDS011;7957;51.608;6.916;2023-05-07T02:02:06;9.23;;;8.43;;
15712;SDS011;7957;51.608;6.916;2023-05-07T02:04:34;9.30;;;8.40;;
15712;SDS011;7957;51.608;6.916;2023-05-07T02:07:01;8.40;;;7.70;;
15712;SDS011;7957;51.608;6.916;2023-05-07T02:09:28;9.10;;;8.30;;
15712;SDS011;7957;51.608;6.916;2023-05-07T02:11:55;8.70;;;8.00;;
15712;SDS011;7957;51.608;6.916;2023-05-07T02:14:23;9.33;;;8.33;;
15712;SDS011;7957;51.608;6.916;2023-05-07T02:16:51;9.70;;;8.70;;
15712;SDS011;7957;51.608;6.916;2023-05-07T02:19:18;8.43;;;7.77;;
15712;SDS011;7957;51.608;6.916;2023-05-07T02:21:46;8.87;;;8.17;;
15712;SDS011;7957;51.608;6.916;2023-05-07T02:24:13;8.83;;;8.13;;
15712;SDS011;7957;51.608;6.916;2023-05-07T02:26:40;9.30;;;8.57;;
15712;SDS011;7957;51.608;6.916;2023-05-07T02:29:07;9.53;;;8.73;;
15712;SDS011;7957;51.608;6.916;2023-05-07T02:31:35;9.00;;;8.30;;
15712;SDS011;7957;51.608;6.916;2023-05-07T02:34:02;8.97;;;8.27;;
15712;SDS011;7957;51.608;6.916;2023-05-07T02:36:29;9.40;;;8.50;;
15712;SDS011;7957;51.608;6.916;2023-05-07T02:38:56;9.20;;;8.40;;
15712;SDS011;7957;51.608;6.916;2023-05-07T02:41:23;9.50;;;8.70;;
15712;SDS011;7957;51.608;6.916;2023-05-07T02:43:50;8.83;;;8.13;;
15712;SDS011;7957;51.608;6.916;2023-05-07T02:46:17;9.63;;;8.77;;
15712;SDS011;7957;51.608;6.916;2023-05-07T02:48:45;9.37;;;8.57;;
15712;SDS011;7957;51.608;6.916;2023-05-07T02:51:12;8.97;;;8.17;;
15712;SDS011;7957;51.608;6.916;2023-05-07T02:53:39;9.37;;;8.57;;
15712;SDS011;7957;51.608;6.916;2023-05-07T02:56:06;9.23;;;8.53;;
15712;SDS011;7957;51.608;6.916;2023-05-07T02:58:33;9.43;;;8.63;;
15712;SDS011;7957;51.608;6.916;2023-05-07T03:01:00;9.23;;;8.40;;
15712;SDS011;7957;51.608;6.916;2023-05-07T03:03:27;8.90;;;8.20;;
15712;SDS011;7957;51.608;6.916;2023-05-07T03:05:55;9.77;;;8.87;;
15712;SDS011;7957;51.608;6.916;2023-05-07T03:08:22;8.93;;;8.23;;
15712;SDS011;7957;51.608;6.916;2023-05-07T03:10:49;9.57;;;8.77;;
15712;SDS011;7957;51.608;6.916;2023-05-07T03:13:16;9.20;;;8.40;;
15712;SDS011;7957;51.608;6.916;2023-05-07T03:15:43;9.37;;;8.47;;
15712;SDS011;7957;51.608;6.916;2023-05-07T03:18:10;9.40;;;8.70;;
15712;SDS011;7957;51.608;6.916;2023-05-07T03:20:37;9.67;;;8.80;;
15712;SDS011;7957;51.608;6.916;2023-05-07T03:23:06;9.40;;;8.60;;
15712;SDS011;7957;51.608;6.916;2023-05-07T03:25:32;9.80;;;9.00;;
15712;SDS011;7957;51.608;6.916;2023-05-07T03:28:00;9.40;;;8.60;;
15712;SDS011;7957;51.608;6.916;2023-05-07T03:30:27;9.70;;;8.93;;
15712;SDS011;7957;51.608;6.916;2023-05-07T03:32:53;10.53;;;9.67;;
15712;SDS011;7957;51.608;6.916;2023-05-07T03:35:20;9.40;;;8.63;;
15712;SDS011;7957;51.608;6.916;2023-05-07T03:37:47;10.03;;;9.23;;
15712;SDS011;7957;51.608;6.916;2023-05-07T03:40:16;9.03;;;8.30;;
15712;SDS011;7957;51.608;6.916;2023-05-07T03:42:43;9.40;;;8.70;;
15712;SDS011;7957;51.608;6.916;2023-05-07T03:45:10;9.93;;;9.03;;
15712;SDS011;7957;51.608;6.916;2023-05-07T03:47:37;9.10;;;8.40;;
15712;SDS011;7957;51.608;6.916;2023-05-07T03:50:04;9.30;;;8.60;;
15712;SDS011;7957;51.608;6.916;2023-05-07T03:52:31;10.00;;;9.20;;
15712;SDS011;7957;51.608;6.916;2023-05-07T03:54:58;9.50;;;8.70;;
15712;SDS011;7957;51.608;6.916;2023-05-07T03:57:26;9.43;;;8.73;;
15712;SDS011;7957;51.608;6.916;2023-05-07T03:59:53;9.87;;;8.87;;
15712;SDS011;7957;51.608;6.916;2023-05-07T04:02:20;9.63;;;8.83;;
15712;SDS011;7957;51.608;6.916;2023-05-07T04:04:48;9.60;;;8.80;;
15712;SDS011;7957;51.608;6.916;2023-05-07T04:07:15;9.43;;;8.63;;
15712;SDS011;7957;51.608;6.916;2023-05-07T04:09:42;9.70;;;9.00;;
15712;SDS011;7957;51.608;6.916;2023-05-07T04:12:09;9.73;;;8.93;;
15712;SDS011;7957;51.608;6.916;2023-05-07T04:14:37;9.87;;;9.07;;
15712;SDS011;7957;51.608;6.916;2023-05-07T04:17:04;9.60;;;8.73;;
15712;SDS011;7957;51.608;6.916;2023-05-07T04:19:32;9.70;;;8.90;;
15712;SDS011;7957;51.608;6.916;2023-05-07T04:22:00;10.00;;;9.20;;
15712;SDS011;7957;51.608;6.916;2023-05-07T04:24:27;9.57;;;8.77;;
15712;SDS011;7957;51.608;6.916;2023-05-07T04:26:57;9.60;;;8.77;;
15712;SDS011;7957;51.608;6.916;2023-05-07T04:29:24;9.70;;;8.90;;
15712;SDS011;7957;51.608;6.916;2023-05-07T04:31:53;9.50;;;8.70;;
15712;SDS011;7957;51.608;6.916;2023-05-07T04:34:21;9.27;;;8.57;;
15712;SDS011;7957;51.608;6.916;2023-05-07T04:36:48;10.50;;;9.60;;
15712;SDS011;7957;51.608;6.916;2023-05-07T04:39:15;9.40;;;8.70;;
15712;SDS011;7957;51.608;6.916;2023-05-07T04:41:41;9.87;;;9.00;;
15712;SDS011;7957;51.608;6.916;2023-05-07T04:44:09;9.30;;;8.60;;
15712;SDS011;7957;51.608;6.916;2023-05-07T04:46:35;9.40;;;8.67;;
15712;SDS011;7957;51.608;6.916;2023-05-07T04:49:04;9.83;;;9.03;;
15712;SDS011;7957;51.608;6.916;2023-05-07T04:51:31;9.10;;;8.40;;
15712;SDS011;7957;51.608;6.916;2023-05-07T04:53:58;9.27;;;8.53;;
15712;SDS011;7957;51.608;6.916;2023-05-07T04:56:27;9.10;;;8.40;;
15712;SDS011;7957;51.608;6.916;2023-05-07T04:58:54;9.87;;;9.07;;
15712;SDS011;7957;51.608;6.916;2023-05-07T05:01:21;9.20;;;8.40;;
15712;SDS011;7957;51.608;6.916;2023-05-07T05:03:48;9.47;;;8.77;;
15712;SDS011;7957;51.608;6.916;2023-05-07T05:06:16;10.27;;;9.47;;
15712;SDS011;7957;51.608;6.916;2023-05-07T05:08:43;8.60;;;8.00;;
15712;SDS011;7957;51.608;6.916;2023-05-07T05:11:10;9.67;;;8.87;;
15712;SDS011;7957;51.608;6.916;2023-05-07T05:13:37;8.90;;;8.10;;
15712;SDS011;7957;51.608;6.916;2023-05-07T05:16:04;9.27;;;8.57;;
15712;SDS011;7957;51.608;6.916;2023-05-07T05:18:32;9.73;;;8.93;;
15712;SDS011;7957;51.608;6.916;2023-05-07T05:20:59;9.70;;;8.80;;
15712;SDS011;7957;51.608;6.916;2023-05-07T05:23:28;9.23;;;8.53;;
15712;SDS011;7957;51.608;6.916;2023-05-07T05:25:55;8.93;;;8.23;;
15712;SDS011;7957;51.608;6.916;2023-05-07T05:28:22;9.63;;;8.83;;
15712;SDS011;7957;51.608;6.916;2023-05-07T05:30:49;9.77;;;8.97;;
15712;SDS011;7957;51.608;6.916;2023-05-07T05:33:16;10.03;;;9.13;;
15712;SDS011;7957;51.608;6.916;2023-05-07T05:35:43;8.73;;;8.03;;
15712;SDS011;7957;51.608;6.916;2023-05-07T05:38:10;9.80;;;9.00;;
15712;SDS011;7957;51.608;6.916;2023-05-07T05:40:39;10.30;;;9.43;;
15712;SDS011;7957;51.608;6.916;2023-05-07T05:43:06;10.93;;;9.97;;
15712;SDS011;7957;51.608;6.916;2023-05-07T05:45:33;8.90;;;8.20;;
15712;SDS011;7957;51.608;6.916;2023-05-07T05:48:00;9.53;;;8.73;;
15712;SDS011;7957;51.608;6.916;2023-05-07T05:50:27;8.80;;;8.17;;
15712;SDS011;7957;51.608;6.916;2023-05-07T05:52:53;8.63;;;8.03;;
15712;SDS011;7957;51.608;6.916;2023-05-07T05:55:21;8.73;;;8.03;;
15712;SDS011;7957;51.608;6.916;2023-05-07T05:57:50;10.50;;;9.50;;
15712;SDS011;7957;51.608;6.916;2023-05-07T06:00:17;10.23;;;9.40;;
15712;SDS011;7957;51.608;6.916;2023-05-07T06:02:44;10.67;;;9.57;;
15712;SDS011;7957;51.608;6.916;2023-05-07T06:05:10;10.10;;;9.30;;
15712;SDS011;7957;51.608;6.916;2023-05-07T06:07:37;10.23;;;9.33;;
15712;SDS011;7957;51.608;6.916;2023-05-07T06:10:04;10.77;;;9.77;;
15712;SDS011;7957;51.608;6.916;2023-05-07T06:12:32;10.33;;;9.43;;
15712;SDS011;7957;51.608;6.916;2023-05-07T06:15:00;10.90;;;10.00;;
15712;SDS011;7957;51.608;6.916;2023-05-07T06:17:27;9.13;;;8.40;;
15712;SDS011;7957;51.608;6.916;2023-05-07T06:19:55;10.27;;;9.37;;
15712;SDS011;7957;51.608;6.916;2023-05-07T06:22:22;9.10;;;8.40;;
15712;SDS011;7957;51.608;6.916;2023-05-07T06:24:49;9.10;;;8.30;;
15712;SDS011;7957;51.608;6.916;2023-05-07T06:27:16;8.90;;;8.10;;
15712;SDS011;7957;51.608;6.916;2023-05-07T06:29:43;9.50;;;8.70;;
15712;SDS011;7957;51.608;6.916;2023-05-07T06:32:12;8.40;;;7.60;;
15712;SDS011;7957;51.608;6.916;2023-05-07T06:34:40;8.17;;;7.47;;
15712;SDS011;7957;51.608;6.916;2023-05-07T06:37:07;8.70;;;8.00;;
15712;SDS011;7957;51.608;6.916;2023-05-07T06:39:34;8.50;;;7.80;;
15712;SDS011;7957;51.608;6.916;2023-05-07T06:42:00;8.60;;;7.80;;
15712;SDS011;7957;51.608;6.916;2023-05-07T06:44:29;7.80;;;7.20;;
15712;SDS011;7957;51.608;6.916;2023-05-07T06:46:56;8.20;;;7.40;;
15712;SDS011;7957;51.608;6.916;2023-05-07T06:49:24;8.07;;;7.37;;
15712;SDS011;7957;51.608;6.916;2023-05-07T06:51:51;8.33;;;7.33;;
15712;SDS011;7957;51.608;6.916;2023-05-07T06:54:18;8.17;;;7.37;;
15712;SDS011;7957;51.608;6.916;2023-05-07T06:56:45;8.13;;;7.43;;
15712;SDS011;7957;51.608;6.916;2023-05-07T06:59:12;7.43;;;6.83;;
15712;SDS011;7957;51.608;6.916;2023-05-07T07:01:39;7.17;;;6.57;;
15712;SDS011;7957;51.608;6.916;2023-05-07T07:04:06;7.93;;;7.23;;
15712;SDS011;7957;51.608;6.916;2023-05-07T07:06:34;7.60;;;6.90;;
15712;SDS011;7957;51.608;6.916;2023-05-07T07:09:01;7.40;;;6.80;;
15712;SDS011;7957;51.608;6.916;2023-05-07T07:11:28;7.67;;;7.07;;
15712;SDS011;7957;51.608;6.916;2023-05-07T07:13:55;7.40;;;6.70;;
15712;SDS011;7957;51.608;6.916;2023-05-07T07:16:22;7.23;;;6.53;;
15712;SDS011;7957;51.608;6.916;2023-05-07T07:18:49;7.37;;;6.77;;
15712;SDS011;7957;51.608;6.916;2023-05-07T07:21:16;7.73;;;6.57;;
15712;SDS011;7957;51.608;6.916;2023-05-07T07:23:44;7.60;;;6.90;;
15712;SDS011;7957;51.608;6.916;2023-05-07T07:26:11;7.10;;;6.47;;
15712;SDS011;7957;51.608;6.916;2023-05-07T07:28:44;7.60;;;6.90;;
15712;SDS011;7957;51.608;6.916;2023-05-07T07:31:12;7.17;;;6.50;;
15712;SDS011;7957;51.608;6.916;2023-05-07T07:33:39;6.90;;;6.20;;
15712;SDS011;7957;51.608;6.916;2023-05-07T07:36:10;7.10;;;6.40;;
15712;SDS011;7957;51.608;6.916;2023-05-07T07:38:37;7.07;;;6.47;;
15712;SDS011;7957;51.608;6.916;2023-05-07T07:41:07;6.53;;;5.93;;
15712;SDS011;7957;51.608;6.916;2023-05-07T07:43:34;7.17;;;6.47;;
15712;SDS011;7957;51.608;6.916;2023-05-07T07:46:02;7.17;;;6.53;;
15712;SDS011;7957;51.608;6.916;2023-05-07T07:48:29;7.53;;;6.37;;
15712;SDS011;7957;51.608;6.916;2023-05-07T07:50:56;6.93;;;6.10;;
15712;SDS011;7957;51.608;6.916;2023-05-07T07:53:23;6.43;;;5.93;;
15712;SDS011;7957;51.608;6.916;2023-05-07T07:55:50;6.40;;;5.90;;
15712;SDS011;7957;51.608;6.916;2023-05-07T07:58:18;8.17;;;6.10;;
15712;SDS011;7957;51.608;6.916;2023-05-07T08:00:47;6.90;;;6.30;;
15712;SDS011;7957;51.608;6.916;2023-05-07T08:03:14;6.83;;;6.13;;
15712;SDS011;7957;51.608;6.916;2023-05-07T08:05:41;6.83;;;6.20;;
15712;SDS011;7957;51.608;6.916;2023-05-07T08:08:08;6.80;;;6.10;;
15712;SDS011;7957;51.608;6.916;2023-05-07T08:10:39;7.43;;;6.60;;
15712;SDS011;7957;51.608;6.916;2023-05-07T08:13:06;6.70;;;6.07;;
15712;SDS011;7957;51.608;6.916;2023-05-07T08:15:34;7.17;;;6.50;;
15712;SDS011;7957;51.608;6.916;2023-05-07T08:18:01;7.27;;;6.10;;
15712;SDS011;7957;51.608;6.916;2023-05-07T08:20:28;6.70;;;6.10;;
15712;SDS011;7957;51.608;6.916;2023-05-07T08:22:55;7.13;;;6.33;;
15712;SDS011;7957;51.608;6.916;2023-05-07T08:25:23;7.53;;;5.97;;
15712;SDS011;7957;51.608;6.916;2023-05-07T08:27:50;6.80;;;6.10;;
15712;SDS011;7957;51.608;6.916;2023-05-07T08:30:18;6.67;;;5.70;;
15712;SDS011;7957;51.608;6.916;2023-05-07T08:32:46;6.50;;;5.90;;
15712;SDS011;7957;51.608;6.916;2023-05-07T08:35:13;6.43;;;5.83;;
15712;SDS011;7957;51.608;6.916;2023-05-07T08:37:40;7.03;;;6.40;;
15712;SDS011;7957;51.608;6.916;2023-05-07T08:40:07;7.07;;;6.23;;
15712;SDS011;7957;51.608;6.916;2023-05-07T08:42:35;6.47;;;5.93;;
15712;SDS011;7957;51.608;6.916;2023-05-07T08:45:03;6.60;;;6.00;;
15712;SDS011;7957;51.608;6.916;2023-05-07T08:47:38;6.67;;;5.97;;
15712;SDS011;7957;51.608;6.916;2023-05-07T08:50:11;7.83;;;6.40;;
15712;SDS011;7957;51.608;6.916;2023-05-07T08:52:39;7.53;;;6.77;;
15712;SDS011;7957;51.608;6.916;2023-05-07T08:55:06;6.93;;;6.17;;
15712;SDS011;7957;51.608;6.916;2023-05-07T08:57:34;7.20;;;6.53;;
15712;SDS011;7957;51.608;6.916;2023-05-07T09:00:04;7.00;;;6.40;;
15712;SDS011;7957;51.608;6.916;2023-05-07T09:02:32;6.60;;;6.00;;
15712;SDS011;7957;51.608;6.916;2023-05-07T09:04:59;6.23;;;5.63;;
15712;SDS011;7957;51.608;6.916;2023-05-07T09:07:28;6.33;;;5.73;;
15712;SDS011;7957;51.608;6.916;2023-05-07T09:09:56;6.80;;;6.13;;
15712;SDS011;7957;51.608;6.916;2023-05-07T09:12:23;6.10;;;5.60;;
15712;SDS011;7957;51.608;6.916;2023-05-07T09:14:50;6.77;;;6.00;;
15712;SDS011;7957;51.608;6.916;2023-05-07T09:17:17;7.10;;;6.50;;
15712;SDS011;7957;51.608;6.916;2023-05-07T09:19:44;6.93;;;6.23;;
15712;SDS011;7957;51.608;6.916;2023-05-07T09:22:12;6.80;;;6.10;;
15712;SDS011;7957;51.608;6.916;2023-05-07T09:24:41;6.63;;;6.13;;
15712;SDS011;7957;51.608;6.916;2023-05-07T09:27:14;8.00;;;6.77;;
15712;SDS011;7957;51.608;6.916;2023-05-07T09:29:41;7.47;;;6.77;;
15712;SDS011;7957;51.608;6.916;2023-05-07T09:32:08;6.80;;;6.20;;
15712;SDS011;7957;51.608;6.916;2023-05-07T09:34:35;6.87;;;6.27;;
15712;SDS011;7957;51.608;6.916;2023-05-07T09:37:02;6.80;;;6.20;;
15712;SDS011;7957;51.608;6.916;2023-05-07T09:39:38;7.90;;;6.33;;
15712;SDS011;7957;51.608;6.916;2023-05-07T09:42:07;7.60;;;6.53;;
15712;SDS011;7957;51.608;6.916;2023-05-07T09:44:34;6.80;;;6.20;;
15712;SDS011;7957;51.608;6.916;2023-05-07T09:47:01;7.27;;;6.67;;
15712;SDS011;7957;51.608;6.916;2023-05-07T09:49:33;6.87;;;6.27;;
15712;SDS011;7957;51.608;6.916;2023-05-07T09:52:02;7.17;;;6.47;;
15712;SDS011;7957;51.608;6.916;2023-05-07T09:54:33;7.17;;;6.47;;
15712;SDS011;7957;51.608;6.916;2023-05-07T09:57:04;8.23;;;6.50;;
15712;SDS011;7957;51.608;6.916;2023-05-07T09:59:32;6.70;;;6.10;;
15712;SDS011;7957;51.608;6.916;2023-05-07T10:02:00;7.00;;;6.37;;
15712;SDS011;7957;51.608;6.916;2023-05-07T10:04:28;6.93;;;6.33;;
15712;SDS011;7957;51.608;6.916;2023-05-07T10:06:57;6.80;;;6.03;;
15712;SDS011;7957;51.608;6.916;2023-05-07T10:09:25;6.23;;;5.73;;
15712;SDS011;7957;51.608;6.916;2023-05-07T10:11:52;6.47;;;5.90;;
15712;SDS011;7957;51.608;6.916;2023-05-07T10:14:21;7.10;;;5.73;;
15712;SDS011;7957;51.608;6.916;2023-05-07T10:16:49;5.57;;;5.00;;
15712;SDS011;7957;51.608;6.916;2023-05-07T10:19:17;5.93;;;5.43;;
15712;SDS011;7957;51.608;6.916;2023-05-07T10:21:48;6.00;;;5.40;;
15712;SDS011;7957;51.608;6.916;2023-05-07T10:24:22;6.50;;;5.90;;
15712;SDS011;7957;51.608;6.916;2023-05-07T10:26:53;6.57;;;5.80;;
15712;SDS011;7957;51.608;6.916;2023-05-07T10:29:29;7.93;;;5.73;;
15712;SDS011;7957;51.608;6.916;2023-05-07T10:32:03;6.20;;;5.63;;
15712;SDS011;7957;51.608;6.916;2023-05-07T10:34:39;5.70;;;5.20;;
15712;SDS011;7957;51.608;6.916;2023-05-07T10:37:08;6.33;;;5.73;;
15712;SDS011;7957;51.608;6.916;2023-05-07T10:39:36;5.87;;;5.33;;
15712;SDS011;7957;51.608;6.916;2023-05-07T10:42:09;5.37;;;4.70;;
15712;SDS011;7957;51.608;6.916;2023-05-07T10:44:39;5.13;;;4.73;;
15712;SDS011;7957;51.608;6.916;2023-05-07T10:47:06;5.43;;;4.97;;
15712;SDS011;7957;51.608;6.916;2023-05-07T10:49:35;5.43;;;4.30;;
15712;SDS011;7957;51.608;6.916;2023-05-07T10:52:13;4.43;;;4.10;;
15712;SDS011;7957;51.608;6.916;2023-05-07T10:54:41;4.20;;;3.90;;
15712;SDS011;7957;51.608;6.916;2023-05-07T11:00:03;5.30;;;3.70;;
15712;SDS011;7957;51.608;6.916;2023-05-07T11:03:04;3.80;;;3.50;;
15712;SDS011;7957;51.608;6.916;2023-05-07T11:05:32;3.43;;;3.20;;
15712;SDS011;7957;51.608;6.916;2023-05-07T11:08:00;3.93;;;3.20;;
15712;SDS011;7957;51.608;6.916;2023-05-07T11:13:16;4.47;;;3.47;;
15712;SDS011;7957;51.608;6.916;2023-05-07T11:15:46;3.70;;;3.40;;
15712;SDS011;7957;51.608;6.916;2023-05-07T11:18:14;3.70;;;3.40;;
15712;SDS011;7957;51.608;6.916;2023-05-07T11:26:46;3.63;;;3.33;;
15712;SDS011;7957;51.608;6.916;2023-05-07T11:29:15;3.60;;;3.30;;
15712;SDS011;7957;51.608;6.916;2023-05-07T11:31:44;4.23;;;3.17;;
15712;SDS011;7957;51.608;6.916;2023-05-07T11:34:15;3.40;;;3.10;;
15712;SDS011;7957;51.608;6.916;2023-05-07T11:36:47;3.47;;;3.17;;
15712;SDS011;7957;51.608;6.916;2023-05-07T11:39:24;3.73;;;3.13;;
15712;SDS011;7957;51.608;6.916;2023-05-07T11:41:52;3.30;;;3.10;;
15712;SDS011;7957;51.608;6.916;2023-05-07T11:44:19;4.17;;;3.37;;
15712;SDS011;7957;51.608;6.916;2023-05-07T11:46:48;3.60;;;3.30;;
15712;SDS011;7957;51.608;6.916;2023-05-07T11:49:15;3.60;;;3.10;;
15712;SDS011;7957;51.608;6.916;2023-05-07T11:51:43;3.97;;;3.60;;
15712;SDS011;7957;51.608;6.916;2023-05-07T11:54:11;3.90;;;3.43;;
15712;SDS011;7957;51.608;6.916;2023-05-07T11:56:42;3.90;;;3.50;;
15712;SDS011;7957;51.608;6.916;2023-05-07T11:59:12;3.80;;;3.20;;
15712;SDS011;7957;51.608;6.916;2023-05-07T12:01:45;3.23;;;2.93;;
15712;SDS011;7957;51.608;6.916;2023-05-07T12:04:13;3.13;;;2.80;;
15712;SDS011;7957;51.608;6.916;2023-05-07T12:06:45;3.33;;;3.03;;
15712;SDS011;7957;51.608;6.916;2023-05-07T12:09:12;4.17;;;2.70;;
15712;SDS011;7957;51.608;6.916;2023-05-07T12:11:39;3.37;;;3.07;;
15712;SDS011;7957;51.608;6.916;2023-05-07T12:14:06;3.13;;;2.80;;
15712;SDS011;7957;51.608;6.916;2023-05-07T12:16:33;3.00;;;2.67;;
15712;SDS011;7957;51.608;6.916;2023-05-07T12:19:00;3.37;;;2.80;;
15712;SDS011;7957;51.608;6.916;2023-05-07T12:21:30;2.97;;;2.77;;
15712;SDS011;7957;51.608;6.916;2023-05-07T12:23:57;4.13;;;2.90;;
15712;SDS011;7957;51.608;6.916;2023-05-07T12:26:25;2.77;;;2.40;;
15712;SDS011;7957;51.608;6.916;2023-05-07T12:28:52;4.50;;;2.50;;
15712;SDS011;7957;51.608;6.916;2023-05-07T12:31:19;2.70;;;2.50;;
15712;SDS011;7957;51.608;6.916;2023-05-07T12:33:45;5.33;;;2.90;;
15712;SDS011;7957;51.608;6.916;2023-05-07T12:36:12;2.90;;;2.67;;
15712;SDS011;7957;51.608;6.916;2023-05-07T12:38:41;3.23;;;2.93;;
15712;SDS011;7957;51.608;6.916;2023-05-07T12:41:08;2.90;;;2.70;;
15712;SDS011;7957;51.608;6.916;2023-05-07T12:43:37;3.40;;;3.07;;
15712;SDS011;7957;51.608;6.916;2023-05-07T12:46:04;3.00;;;2.70;;
15712;SDS011;7957;51.608;6.916;2023-05-07T12:48:35;3.40;;;3.10;;
15712;SDS011;7957;51.608;6.916;2023-05-07T12:51:02;3.00;;;2.80;;
15712;SDS011;7957;51.608;6.916;2023-05-07T12:53:31;3.37;;;3.10;;
15712;SDS011;7957;51.608;6.916;2023-05-07T12:55:59;3.20;;;2.90;;
15712;SDS011;7957;51.608;6.916;2023-05-07T12:58:27;3.60;;;3.30;;
15712;SDS011;7957;51.608;6.916;2023-05-07T13:00:55;4.17;;;3.80;;
15712;SDS011;7957;51.608;6.916;2023-05-07T13:03:24;3.83;;;3.43;;
15712;SDS011;7957;51.608;6.916;2023-05-07T13:05:54;3.63;;;3.33;;
15712;SDS011;7957;51.608;6.916;2023-05-07T13:08:25;3.80;;;3.50;;
15712;SDS011;7957;51.608;6.916;2023-05-07T13:11:00;4.33;;;3.93;;
15712;SDS011;7957;51.608;6.916;2023-05-07T13:13:29;4.00;;;3.70;;
15712;SDS011;7957;51.608;6.916;2023-05-07T13:15:56;3.90;;;3.50;;
15712;SDS011;7957;51.608;6.916;2023-05-07T13:18:24;3.90;;;3.60;;
15712;SDS011;7957;51.608;6.916;2023-05-07T13:20:52;4.43;;;4.03;;
15712;SDS011;7957;51.608;6.916;2023-05-07T13:23:18;4.33;;;3.80;;
15712;SDS011;7957;51.608;6.916;2023-05-07T13:25:45;4.20;;;3.77;;
15712;SDS011;7957;51.608;6.916;2023-05-07T13:28:14;4.50;;;4.07;;
15712;SDS011;7957;51.608;6.916;2023-05-07T13:30:41;4.30;;;3.90;;
15712;SDS011;7957;51.608;6.916;2023-05-07T13:33:08;4.57;;;4.17;;
15712;SDS011;7957;51.608;6.916;2023-05-07T13:35:35;4.80;;;4.37;;
15712;SDS011;7957;51.608;6.916;2023-05-07T13:38:02;4.63;;;4.23;;
15712;SDS011;7957;51.608;6.916;2023-05-07T13:40:29;5.73;;;4.73;;
15712;SDS011;7957;51.608;6.916;2023-05-07T13:42:57;4.50;;;4.10;;
15712;SDS011;7957;51.608;6.916;2023-05-07T13:45:28;4.37;;;3.97;;
15712;SDS011;7957;51.608;6.916;2023-05-07T13:47:55;5.10;;;4.60;;
15712;SDS011;7957;51.608;6.916;2023-05-07T13:50:23;5.17;;;4.77;;
15712;SDS011;7957;51.608;6.916;2023-05-07T13:52:51;4.87;;;4.47;;
15712;SDS011;7957;51.608;6.916;2023-05-07T13:55:18;6.00;;;4.87;;
15712;SDS011;7957;51.608;6.916;2023-05-07T13:57:46;5.77;;;5.17;;
15712;SDS011;7957;51.608;6.916;2023-05-07T14:00:14;5.57;;;5.00;;
15712;SDS011;7957;51.608;6.916;2023-05-07T14:02:42;5.70;;;5.17;;
15712;SDS011;7957;51.608;6.916;2023-05-07T14:05:09;5.73;;;5.03;;
15712;SDS011;7957;51.608;6.916;2023-05-07T14:07:38;5.93;;;4.93;;
15712;SDS011;7957;51.608;6.916;2023-05-07T14:10:05;6.30;;;5.63;;
15712;SDS011;7957;51.608;6.916;2023-05-07T14:12:33;6.03;;;5.40;;
15712;SDS011;7957;51.608;6.916;2023-05-07T14:15:00;6.30;;;5.80;;
15712;SDS011;7957;51.608;6.916;2023-05-07T14:17:27;5.77;;;5.27;;
15712;SDS011;7957;51.608;6.916;2023-05-07T14:19:57;6.00;;;5.50;;
15712;SDS011;7957;51.608;6.916;2023-05-07T14:22:27;7.50;;;6.60;;
15712;SDS011;7957;51.608;6.916;2023-05-07T14:24:54;5.97;;;5.47;;
15712;SDS011;7957;51.608;6.916;2023-05-07T14:27:21;5.97;;;5.43;;
15712;SDS011;7957;51.608;6.916;2023-05-07T14:29:48;6.83;;;6.10;;
15712;SDS011;7957;51.608;6.916;2023-05-07T14:32:16;7.37;;;6.67;;
15712;SDS011;7957;51.608;6.916;2023-05-07T14:34:44;8.50;;;6.80;;
15712;SDS011;7957;51.608;6.916;2023-05-07T14:37:12;7.13;;;6.53;;
15712;SDS011;7957;51.608;6.916;2023-05-07T14:39:39;7.77;;;6.97;;
15712;SDS011;7957;51.608;6.916;2023-05-07T14:42:06;7.80;;;7.10;;
15712;SDS011;7957;51.608;6.916;2023-05-07T14:44:33;6.83;;;6.23;;
15712;SDS011;7957;51.608;6.916;2023-05-07T14:47:00;6.67;;;6.07;;
15712;SDS011;7957;51.608;6.916;2023-05-07T14:49:27;7.80;;;7.00;;
15712;SDS011;7957;51.608;6.916;2023-05-07T14:51:56;7.90;;;7.20;;
15712;SDS011;7957;51.608;6.916;2023-05-07T14:54:25;7.23;;;6.63;;
15712;SDS011;7957;51.608;6.916;2023-05-07T14:56:52;6.60;;;6.10;;
15712;SDS011;7957;51.608;6.916;2023-05-07T14:59:19;7.33;;;6.63;;
15712;SDS011;7957;51.608;6.916;2023-05-07T15:01:47;8.03;;;7.23;;
15712;SDS011;7957;51.608;6.916;2023-05-07T15:04:14;7.73;;;6.93;;
15712;SDS011;7957;51.608;6.916;2023-05-07T15:06:41;7.77;;;7.00;;
15712;SDS011;7957;51.608;6.916;2023-05-07T15:09:07;7.23;;;6.63;;
15712;SDS011;7957;51.608;6.916;2023-05-07T15:11:36;7.10;;;6.40;;
15712;SDS011;7957;51.608;6.916;2023-05-07T15:14:03;7.13;;;6.53;;
15712;SDS011;7957;51.608;6.916;2023-05-07T15:16:30;7.47;;;6.87;;